createdAt,value
2018-09-30T00:01:18.456Z,15.69
2018-09-30T00:03:50.048Z,15.66
2018-09-30T00:06:24.327Z,15.69
2018-09-30T00:08:55.724Z,15.65
2018-09-30T00:11:27.078Z,15.65
2018-09-30T00:13:58.271Z,15.67
2018-09-30T00:16:30.089Z,15.62
2018-09-30T00:19:01.678Z,15.60
2018-09-30T00:21:33.284Z,14.80
2018-09-30T00:24:09.676Z,15.55
2018-09-30T00:26:46.261Z,15.60
2018-09-30T00:29:19.318Z,15.55
2018-09-30T00:31:51.904Z,15.56
2018-09-30T00:34:30.576Z,15.41
2018-09-30T00:37:02.353Z,15.36
2018-09-30T00:39:34.770Z,15.35
2018-09-30T00:42:05.935Z,15.39
2018-09-30T00:44:37.689Z,15.39
2018-09-30T00:47:08.941Z,15.42
2018-09-30T00:49:40.322Z,15.31
2018-09-30T00:52:11.637Z,15.19
2018-09-30T00:54:43.999Z,15.32
2018-09-30T00:57:15.837Z,15.31
2018-09-30T00:59:47.060Z,15.34
2018-09-30T01:02:18.988Z,15.32
2018-09-30T01:04:50.274Z,15.33
2018-09-30T01:07:21.543Z,15.27
2018-09-30T01:09:53.503Z,15.25
2018-09-30T01:12:24.975Z,15.27
2018-09-30T01:14:56.571Z,15.17
2018-09-30T01:17:28.133Z,15.10
2018-09-30T01:19:58.621Z,15.00
2018-09-30T01:22:29.895Z,14.97
2018-09-30T01:25:01.672Z,14.96
2018-09-30T01:27:33.029Z,14.98
2018-09-30T01:30:06.751Z,14.96
2018-09-30T01:32:38.532Z,14.95
2018-09-30T01:35:10.549Z,14.95
2018-09-30T01:37:41.863Z,14.89
2018-09-30T01:40:13.493Z,14.69
2018-09-30T01:42:44.790Z,14.88
2018-09-30T01:45:22.228Z,14.83
2018-09-30T01:47:53.517Z,14.76
2018-09-30T01:50:25.113Z,14.78
2018-09-30T01:52:57.595Z,14.77
2018-09-30T01:55:28.970Z,14.69
2018-09-30T01:58:00.363Z,14.77
2018-09-30T02:00:31.577Z,14.65
2018-09-30T02:03:03.163Z,14.64
2018-09-30T02:05:34.464Z,14.68
2018-09-30T02:08:05.768Z,14.70
2018-09-30T02:10:37.405Z,14.69
2018-09-30T02:13:08.941Z,14.79
2018-09-30T02:15:40.255Z,14.73
2018-09-30T02:18:12.658Z,14.70
2018-09-30T02:20:44.693Z,14.64
2018-09-30T02:23:16.035Z,14.64
2018-09-30T02:25:47.473Z,14.52
2018-09-30T02:28:18.954Z,14.43
2018-09-30T02:30:50.210Z,14.30
2018-09-30T02:33:21.558Z,14.29
2018-09-30T02:35:52.923Z,14.12
2018-09-30T02:38:24.203Z,13.93
2018-09-30T02:40:57.499Z,13.89
2018-09-30T02:43:28.769Z,13.70
2018-09-30T02:46:00.006Z,13.69
2018-09-30T02:48:31.368Z,13.71
2018-09-30T02:51:03.421Z,13.61
2018-09-30T02:53:34.972Z,13.44
2018-09-30T02:56:05.709Z,13.30
2018-09-30T02:58:37.090Z,13.38
2018-09-30T03:01:09.360Z,13.39
2018-09-30T03:03:40.684Z,13.20
2018-09-30T03:06:17.105Z,13.19
2018-09-30T03:08:53.292Z,13.25
2018-09-30T03:11:24.587Z,13.29
2018-09-30T03:13:55.959Z,13.30
2018-09-30T03:16:27.176Z,13.40
2018-09-30T03:21:32.103Z,13.71
2018-09-30T03:24:03.753Z,13.68
2018-09-30T03:26:34.944Z,13.01
2018-09-30T03:29:06.758Z,13.64
2018-09-30T03:31:38.503Z,13.70
2018-09-30T03:34:10.595Z,13.78
2018-09-30T03:36:41.859Z,14.13
2018-09-30T03:39:13.575Z,14.08
2018-09-30T03:41:44.829Z,14.06
2018-09-30T03:44:16.384Z,13.99
2018-09-30T03:46:47.688Z,14.00
2018-09-30T03:49:19.973Z,14.03
2018-09-30T03:51:51.629Z,14.02
2018-09-30T03:54:22.924Z,14.01
2018-09-30T03:56:54.574Z,14.15
2018-09-30T03:59:26.230Z,14.01
2018-09-30T04:01:57.489Z,13.93
2018-09-30T04:04:29.219Z,13.91
2018-09-30T04:07:00.548Z,14.02
2018-09-30T04:09:32.044Z,14.25
2018-09-30T04:12:03.250Z,14.23
2018-09-30T04:14:35.085Z,14.15
2018-09-30T04:17:08.847Z,14.05
2018-09-30T04:19:40.223Z,14.35
2018-09-30T04:22:11.524Z,14.36
2018-09-30T04:24:43.197Z,14.21
2018-09-30T04:27:14.400Z,14.13
2018-09-30T04:29:46.404Z,14.06
2018-09-30T04:32:17.109Z,14.12
2018-09-30T04:34:48.463Z,14.18
2018-09-30T04:37:19.731Z,14.19
2018-09-30T04:39:51.046Z,14.10
2018-09-30T04:42:22.366Z,14.09
2018-09-30T04:44:54.047Z,14.10
2018-09-30T04:47:25.414Z,14.17
2018-09-30T04:49:57.037Z,14.04
2018-09-30T04:52:30.379Z,14.11
2018-09-30T04:55:01.686Z,14.14
2018-09-30T04:57:33.363Z,14.18
2018-09-30T05:00:06.049Z,14.12
2018-09-30T05:02:37.718Z,14.15
2018-09-30T05:05:09.570Z,14.13
2018-09-30T05:07:40.147Z,14.17
2018-09-30T05:10:11.783Z,14.22
2018-09-30T05:12:44.233Z,14.17
2018-09-30T05:15:18.789Z,14.34
2018-09-30T05:17:50.088Z,14.17
2018-09-30T05:20:21.840Z,14.23
2018-09-30T05:22:53.255Z,14.24
2018-09-30T05:25:25.194Z,14.18
2018-09-30T05:27:56.517Z,14.15
2018-09-30T05:30:27.737Z,13.78
2018-09-30T05:32:59.545Z,14.15
2018-09-30T05:35:30.022Z,14.20
2018-09-30T05:38:01.452Z,14.23
2018-09-30T05:40:33.061Z,14.28
2018-09-30T05:43:04.418Z,14.28
2018-09-30T05:45:35.797Z,14.27
2018-09-30T05:48:07.194Z,14.28
2018-09-30T05:50:38.503Z,14.33
2018-09-30T05:53:10.190Z,14.80
2018-09-30T05:55:41.372Z,15.47
2018-09-30T05:58:12.609Z,16.19
2018-09-30T06:00:43.961Z,16.10
2018-09-30T06:03:15.336Z,17.23
2018-09-30T06:05:47.345Z,17.60
2018-09-30T06:08:18.633Z,17.82
2018-09-30T06:10:50.012Z,18.03
2018-09-30T06:13:20.735Z,18.17
2018-09-30T06:15:52.160Z,18.51
2018-09-30T06:18:24.691Z,18.71
2018-09-30T06:20:56.479Z,18.88
2018-09-30T06:23:27.932Z,19.00
2018-09-30T06:25:59.992Z,18.63
2018-09-30T06:28:31.402Z,19.41
2018-09-30T06:31:02.656Z,19.63
2018-09-30T06:33:33.896Z,19.60
2018-09-30T06:36:04.381Z,19.84
2018-09-30T06:38:34.923Z,20.03
2018-09-30T06:41:17.555Z,20.20
2018-09-30T06:43:58.655Z,20.29
2018-09-30T06:46:29.408Z,20.35
2018-09-30T06:49:00.743Z,20.26
2018-09-30T06:51:31.242Z,20.32
2018-09-30T06:54:02.736Z,20.46
2018-09-30T06:56:34.087Z,20.59
2018-09-30T06:59:04.652Z,20.81
2018-09-30T07:01:35.497Z,20.81
2018-09-30T07:04:07.533Z,21.12
2018-09-30T07:06:38.308Z,21.13
2018-09-30T07:09:09.669Z,20.95
2018-09-30T07:11:41.078Z,20.72
2018-09-30T07:14:12.433Z,20.93
2018-09-30T07:16:44.341Z,20.84
2018-09-30T07:19:14.836Z,20.88
2018-09-30T07:21:47.389Z,20.70
2018-09-30T07:24:19.343Z,20.40
2018-09-30T07:26:49.951Z,20.09
2018-09-30T07:29:23.041Z,19.80
2018-09-30T07:31:53.603Z,19.49
2018-09-30T07:34:25.307Z,19.17
2018-09-30T07:36:55.826Z,19.18
2018-09-30T07:39:27.036Z,19.15
2018-09-30T07:42:00.588Z,19.17
2018-09-30T07:44:31.614Z,18.99
2018-09-30T07:47:04.016Z,19.21
2018-09-30T07:49:34.569Z,19.35
2018-09-30T07:52:05.055Z,19.55
2018-09-30T07:54:35.578Z,19.59
2018-09-30T07:57:07.930Z,19.72
2018-09-30T07:59:39.528Z,19.91
2018-09-30T08:02:09.988Z,20.12
2018-09-30T08:04:40.423Z,20.35
2018-09-30T08:07:10.838Z,20.33
2018-09-30T08:09:42.305Z,20.16
2018-09-30T08:12:14.302Z,20.35
2018-09-30T08:14:48.721Z,20.45
2018-09-30T08:17:20.255Z,20.82
2018-09-30T08:19:51.424Z,21.14
2018-09-30T08:22:24.489Z,21.12
2018-09-30T08:24:56.584Z,21.05
2018-09-30T08:27:28.708Z,21.23
2018-09-30T08:30:00.040Z,21.29
2018-09-30T08:32:33.126Z,21.29
2018-09-30T08:35:04.889Z,21.69
2018-09-30T08:37:40.719Z,21.73
2018-09-30T08:40:11.618Z,21.35
2018-09-30T08:42:43.640Z,21.64
2018-09-30T08:45:19.193Z,22.12
2018-09-30T08:47:50.763Z,22.53
2018-09-30T08:50:30.423Z,22.17
2018-09-30T08:53:05.886Z,22.40
2018-09-30T08:55:36.829Z,22.76
2018-09-30T08:58:09.135Z,22.89
2018-09-30T09:00:40.489Z,23.02
2018-09-30T09:03:12.071Z,22.67
2018-09-30T09:05:45.243Z,22.90
2018-09-30T09:08:17.506Z,23.14
2018-09-30T09:10:49.351Z,23.67
2018-09-30T09:13:22.922Z,23.83
2018-09-30T09:15:55.470Z,23.74
2018-09-30T09:18:26.185Z,23.82
2018-09-30T09:20:58.850Z,24.19
2018-09-30T09:23:29.468Z,24.13
2018-09-30T09:26:00.863Z,24.32
2018-09-30T09:28:32.157Z,24.48
2018-09-30T09:31:04.154Z,24.41
2018-09-30T09:33:35.318Z,24.39
2018-09-30T09:36:06.821Z,24.50
2018-09-30T09:38:37.561Z,24.51
2018-09-30T09:41:10.085Z,24.56
2018-09-30T09:43:41.546Z,24.84
2018-09-30T09:46:13.513Z,24.94
2018-09-30T09:48:44.194Z,24.91
2018-09-30T09:51:15.114Z,24.88
2018-09-30T09:53:47.506Z,24.81
2018-09-30T09:56:19.739Z,25.32
2018-09-30T09:58:52.552Z,25.51
2018-09-30T10:01:25.354Z,25.49
2018-09-30T10:03:58.498Z,25.71
2018-09-30T10:06:31.797Z,26.03
2018-09-30T10:09:03.753Z,25.68
2018-09-30T10:11:34.610Z,25.97
2018-09-30T10:14:07.476Z,26.03
2018-09-30T10:16:45.348Z,26.76
2018-09-30T10:19:23.332Z,27.11
2018-09-30T10:21:57.537Z,27.21
2018-09-30T10:24:29.188Z,26.68
2018-09-30T10:27:01.497Z,27.02
2018-09-30T10:29:33.278Z,27.12
2018-09-30T10:32:06.335Z,27.04
2018-09-30T10:34:37.952Z,27.06
2018-09-30T10:37:10.886Z,27.22
2018-09-30T10:39:41.470Z,27.11
2018-09-30T10:42:12.252Z,27.50
2018-09-30T10:44:44.166Z,28.05
2018-09-30T10:47:15.684Z,28.14
2018-09-30T10:49:47.642Z,27.87
2018-09-30T10:52:20.655Z,27.89
2018-09-30T10:54:51.599Z,28.01
2018-09-30T10:57:23.618Z,28.53
2018-09-30T10:59:56.448Z,28.95
2018-09-30T11:02:29.858Z,28.88
2018-09-30T11:04:59.483Z,28.87
2018-09-30T11:07:32.442Z,28.93
2018-09-30T11:10:05.535Z,28.85
2018-09-30T11:12:37.135Z,28.94
2018-09-30T11:15:09.902Z,29.18
2018-09-30T11:17:40.397Z,29.16
2018-09-30T11:20:17.795Z,29.23
2018-09-30T11:22:50.293Z,28.95
2018-09-30T11:25:24.489Z,29.04
2018-09-30T11:27:58.029Z,29.16
2018-09-30T11:30:29.955Z,29.06
2018-09-30T11:33:01.829Z,29.23
2018-09-30T11:35:36.494Z,29.29
2018-09-30T11:38:08.379Z,29.54
2018-09-30T11:40:41.452Z,29.70
2018-09-30T11:43:12.684Z,29.93
2018-09-30T11:45:45.632Z,29.93
2018-09-30T11:48:17.139Z,29.44
2018-09-30T11:50:52.729Z,29.42
2018-09-30T11:53:24.569Z,29.14
2018-09-30T11:55:58.783Z,29.15
2018-09-30T11:58:29.216Z,29.13
2018-09-30T12:01:00.615Z,29.48
2018-09-30T12:03:31.904Z,29.57
2018-09-30T12:06:04.684Z,29.40
2018-09-30T12:08:37.651Z,29.35
2018-09-30T12:11:10.578Z,29.52
2018-09-30T12:13:42.825Z,29.71
2018-09-30T12:16:15.673Z,29.72
2018-09-30T12:18:48.430Z,28.87
2018-09-30T12:21:19.083Z,29.45
2018-09-30T12:23:49.449Z,29.30
2018-09-30T12:26:19.943Z,29.49
2018-09-30T12:28:51.370Z,29.76
2018-09-30T12:31:22.227Z,29.24
2018-09-30T12:33:53.811Z,28.88
2018-09-30T12:36:24.224Z,28.85
2018-09-30T12:38:53.805Z,29.13
2018-09-30T12:41:23.474Z,29.20
2018-09-30T12:43:55.645Z,29.30
2018-09-30T12:46:27.275Z,29.11
2018-09-30T12:49:00.476Z,29.66
2018-09-30T12:51:32.246Z,29.72
2018-09-30T12:54:07.848Z,29.35
2018-09-30T12:56:38.385Z,29.17
2018-09-30T12:59:10.309Z,29.22
2018-09-30T13:01:43.210Z,29.50
2018-09-30T13:04:15.853Z,29.85
2018-09-30T13:06:47.670Z,29.88
2018-09-30T13:09:21.423Z,30.13
2018-09-30T13:11:53.133Z,30.57
2018-09-30T13:14:24.375Z,30.45
2018-09-30T13:16:58.517Z,30.21
2018-09-30T13:19:28.965Z,29.90
2018-09-30T13:21:59.496Z,30.03
2018-09-30T13:24:31.227Z,29.51
2018-09-30T13:27:01.626Z,29.90
2018-09-30T13:29:32.280Z,29.96
2018-09-30T13:32:02.848Z,29.37
2018-09-30T13:34:36.260Z,30.09
2018-09-30T13:37:09.662Z,30.20
2018-09-30T13:39:41.244Z,29.99
2018-09-30T13:42:11.846Z,29.62
2018-09-30T13:44:42.335Z,29.70
2018-09-30T13:47:12.751Z,29.55
2018-09-30T13:49:44.186Z,29.66
2018-09-30T13:52:15.219Z,29.90
2018-09-30T13:54:46.080Z,30.07
2018-09-30T13:57:18.151Z,30.39
2018-09-30T13:59:49.179Z,30.77
2018-09-30T14:02:19.578Z,30.34
2018-09-30T14:04:51.389Z,30.12
2018-09-30T14:07:23.709Z,30.46
2018-09-30T14:09:57.449Z,30.17
2018-09-30T14:12:29.149Z,30.31
2018-09-30T14:15:00.923Z,30.79
2018-09-30T14:17:32.525Z,30.85
2018-09-30T14:20:04.803Z,30.84
2018-09-30T14:22:36.899Z,30.38
2018-09-30T14:25:08.542Z,30.13
2018-09-30T14:27:39.113Z,30.27
2018-09-30T14:30:14.696Z,29.98
2018-09-30T14:32:49.176Z,30.21
2018-09-30T14:35:21.428Z,30.23
2018-09-30T14:37:51.967Z,30.27
2018-09-30T14:40:24.343Z,29.89
2018-09-30T14:42:55.328Z,29.55
2018-09-30T14:45:27.920Z,29.90
2018-09-30T14:47:58.522Z,30.06
2018-09-30T14:50:29.282Z,30.11
2018-09-30T14:53:00.135Z,30.52
2018-09-30T14:55:33.704Z,30.69
2018-09-30T14:58:04.383Z,30.85
2018-09-30T15:00:38.586Z,30.97
2018-09-30T15:03:09.357Z,31.11
2018-09-30T15:05:42.131Z,31.38
2018-09-30T15:08:11.775Z,31.35
2018-09-30T15:10:44.129Z,31.45
2018-09-30T15:13:14.291Z,31.76
2018-09-30T15:15:46.685Z,31.71
2018-09-30T15:18:21.413Z,31.19
2018-09-30T15:20:55.917Z,31.27
2018-09-30T15:23:27.486Z,31.79
2018-09-30T15:25:58.861Z,31.76
2018-09-30T15:28:31.313Z,31.29
2018-09-30T15:31:03.757Z,31.07
2018-09-30T15:33:37.440Z,31.07
2018-09-30T15:36:08.999Z,31.11
2018-09-30T15:38:39.759Z,31.24
2018-09-30T15:41:12.128Z,31.32
2018-09-30T15:43:43.287Z,31.50
2018-09-30T15:46:12.992Z,31.76
2018-09-30T15:48:46.585Z,31.48
2018-09-30T15:51:16.260Z,31.68
2018-09-30T15:53:49.774Z,31.58
2018-09-30T15:56:20.798Z,31.17
2018-09-30T15:58:51.427Z,31.09
2018-09-30T16:01:23.054Z,30.96
2018-09-30T16:03:53.617Z,31.04
2018-09-30T16:09:02.406Z,30.81
2018-09-30T16:11:34.918Z,30.68
2018-09-30T16:14:22.984Z,30.58
2018-09-30T16:17:01.211Z,30.66
2018-09-30T16:19:36.062Z,30.59
2018-09-30T16:22:09.341Z,30.01
2018-09-30T16:24:42.367Z,29.77
2018-09-30T16:27:13.878Z,29.24
2018-09-30T16:29:46.976Z,28.74
2018-09-30T16:32:22.726Z,28.59
2018-09-30T16:35:00.813Z,27.90
2018-09-30T16:37:32.261Z,27.70
2018-09-30T16:40:07.876Z,27.31
2018-09-30T16:42:42.295Z,27.09
2018-09-30T16:45:23.339Z,26.82
2018-09-30T16:47:56.856Z,26.65
2018-09-30T16:52:57.540Z,26.61
2018-09-30T16:55:28.722Z,26.42
2018-09-30T16:58:00.213Z,26.26
2018-09-30T17:00:32.606Z,26.12
2018-09-30T17:03:06.437Z,26.00
2018-09-30T17:05:39.552Z,25.86
2018-09-30T17:08:13.624Z,25.77
2018-09-30T17:10:48.297Z,25.53
2018-09-30T17:13:21.379Z,25.35
2018-09-30T17:16:00.575Z,25.22
2018-09-30T17:18:35.135Z,25.00
2018-09-30T17:21:07.696Z,25.02
2018-09-30T17:23:38.429Z,24.82
2018-09-30T17:26:12.254Z,24.60
2018-09-30T17:28:43.432Z,24.56
2018-09-30T17:31:16.198Z,24.26
2018-09-30T17:33:47.630Z,23.96
2018-09-30T17:36:21.502Z,23.79
2018-09-30T17:38:55.822Z,23.04
2018-09-30T17:41:31.705Z,23.43
2018-09-30T17:44:04.581Z,23.18
2018-09-30T17:46:36.321Z,23.06
2018-09-30T17:49:12.693Z,22.90
2018-09-30T17:51:45.997Z,22.67
2018-09-30T17:54:21.419Z,22.41
2018-09-30T17:56:51.925Z,22.21
2018-09-30T17:59:25.478Z,22.18
2018-09-30T18:02:00.479Z,22.09
2018-09-30T18:04:34.366Z,22.03
2018-09-30T18:07:06.672Z,21.80
2018-09-30T18:09:42.231Z,21.64
2018-09-30T18:12:16.198Z,21.58
2018-09-30T18:14:50.400Z,21.55
2018-09-30T18:17:23.046Z,21.45
2018-09-30T18:19:55.885Z,21.47
2018-09-30T18:22:28.277Z,21.52
2018-09-30T18:25:00.946Z,21.33
2018-09-30T18:27:34.035Z,21.14
2018-09-30T18:30:09.113Z,21.06
2018-09-30T18:32:43.160Z,20.96
2018-09-30T18:35:14.279Z,20.95
2018-09-30T18:37:47.383Z,20.86
2018-09-30T18:40:21.351Z,20.72
2018-09-30T18:42:52.459Z,20.56
2018-09-30T18:45:33.324Z,20.75
2018-09-30T18:48:05.270Z,20.66
2018-09-30T18:50:38.136Z,20.56
2018-09-30T18:53:11.414Z,20.60
2018-09-30T18:55:44.618Z,20.70
2018-09-30T18:58:16.317Z,20.58
2018-09-30T19:00:49.289Z,20.61
2018-09-30T19:03:21.452Z,20.59
2018-09-30T19:05:54.441Z,20.00
2018-09-30T19:11:32.705Z,20.54
2018-09-30T19:14:04.802Z,20.47
2018-09-30T19:16:35.727Z,20.57
2018-09-30T19:19:08.291Z,20.71
2018-09-30T19:21:53.604Z,20.58
2018-09-30T19:24:25.829Z,20.36
2018-09-30T19:26:57.821Z,20.42
2018-09-30T19:29:27.632Z,20.38
2018-09-30T19:31:57.744Z,20.27
2018-09-30T19:34:27.502Z,20.02
2018-09-30T19:37:01.128Z,20.23
2018-09-30T19:39:32.502Z,20.01
2018-09-30T19:42:03.061Z,19.93
2018-09-30T19:44:35.919Z,19.96
2018-09-30T19:47:07.509Z,19.96
2018-09-30T19:49:40.861Z,19.91
2018-09-30T19:52:15.626Z,20.01
2018-09-30T19:54:46.932Z,20.03
2018-09-30T19:57:20.208Z,20.01
2018-09-30T19:59:50.678Z,19.60
2018-09-30T20:02:25.004Z,19.97
2018-09-30T20:04:56.528Z,20.16
2018-09-30T20:07:29.289Z,19.90
2018-09-30T20:10:00.896Z,19.80
2018-09-30T20:12:36.891Z,19.70
2018-09-30T20:15:09.029Z,19.97
2018-09-30T20:17:42.842Z,19.80
2018-09-30T20:20:15.070Z,19.81
2018-09-30T20:22:46.402Z,19.94
2018-09-30T20:25:17.119Z,19.90
2018-09-30T20:27:51.148Z,19.88
2018-09-30T20:30:24.527Z,19.89
2018-09-30T20:32:58.407Z,19.74
2018-09-30T20:35:29.201Z,20.05
2018-09-30T20:38:01.984Z,19.82
2018-09-30T20:40:33.428Z,19.97
2018-09-30T20:43:05.432Z,19.82
2018-09-30T20:45:36.853Z,19.84
2018-09-30T20:48:07.809Z,19.73
2018-09-30T20:50:40.146Z,19.60
2018-09-30T20:53:12.400Z,19.61
2018-09-30T20:55:44.365Z,19.67
2018-09-30T20:58:16.963Z,19.73
2018-09-30T21:00:52.743Z,19.84
2018-09-30T21:03:24.203Z,19.91
2018-09-30T21:06:31.219Z,19.96
2018-09-30T21:09:03.909Z,19.95
2018-09-30T21:11:40.266Z,19.87
2018-09-30T21:14:13.934Z,19.80
2018-09-30T21:16:45.447Z,19.83
2018-09-30T21:19:16.815Z,19.98
2018-09-30T21:21:47.538Z,20.07
2018-09-30T21:24:18.085Z,19.95
2018-09-30T21:26:50.569Z,19.92
2018-09-30T21:29:22.455Z,20.15
2018-09-30T21:31:56.201Z,20.14
2018-09-30T21:34:29.570Z,20.10
2018-09-30T21:37:04.407Z,20.19
2018-09-30T21:39:39.498Z,20.34
2018-09-30T21:42:10.930Z,20.28
2018-09-30T21:44:42.313Z,20.44
2018-09-30T21:47:15.760Z,20.46
2018-09-30T21:49:51.301Z,20.36
2018-09-30T21:52:25.600Z,19.80
2018-09-30T21:54:56.714Z,20.43
2018-09-30T21:57:31.677Z,20.38
2018-09-30T22:00:04.990Z,20.49
2018-09-30T22:02:35.557Z,20.65
2018-09-30T22:05:08.287Z,20.59
2018-09-30T22:07:41.724Z,20.78
2018-09-30T22:10:12.366Z,20.66
2018-09-30T22:12:46.116Z,20.61
2018-09-30T22:15:17.842Z,20.82
2018-09-30T22:17:50.248Z,20.84
2018-09-30T22:20:22.162Z,20.87
2018-09-30T22:22:54.798Z,20.99
2018-09-30T22:25:26.212Z,21.00
2018-09-30T22:28:00.339Z,21.06
2018-09-30T22:30:32.217Z,21.08
2018-09-30T22:33:04.040Z,21.17
2018-09-30T22:35:35.473Z,21.21
2018-09-30T22:38:06.320Z,21.22
2018-09-30T22:40:38.218Z,21.06
2018-09-30T22:43:10.353Z,21.15
2018-09-30T22:45:43.642Z,21.20
2018-09-30T22:48:15.307Z,21.05
2018-09-30T22:50:47.459Z,21.01
2018-09-30T22:53:22.327Z,20.90
2018-09-30T22:55:56.269Z,20.76
2018-09-30T22:58:27.732Z,20.82
2018-09-30T23:00:59.061Z,20.73
2018-09-30T23:03:30.619Z,20.56
2018-09-30T23:06:02.681Z,20.61
2018-09-30T23:08:34.555Z,20.51
2018-09-30T23:14:32.790Z,20.42
2018-09-30T23:17:04.381Z,20.39
2018-09-30T23:19:37.329Z,20.29
2018-09-30T23:22:12.693Z,20.41
2018-09-30T23:24:44.045Z,20.40
2018-09-30T23:27:14.912Z,20.30
2018-09-30T23:29:46.265Z,20.33
2018-09-30T23:32:16.824Z,20.29
2018-09-30T23:34:47.234Z,20.12
2018-09-30T23:37:18.604Z,20.02
2018-09-30T23:39:50.231Z,20.03
2018-09-30T23:42:20.649Z,19.91
2018-09-30T23:44:52.027Z,20.05
2018-09-30T23:47:23.688Z,19.98
2018-09-30T23:49:55.114Z,19.86
2018-09-30T23:52:26.416Z,19.90
2018-09-30T23:54:58.430Z,19.85
2018-09-30T23:57:29.698Z,19.81
